createdAt,value
2023-02-17T00:01:48.681Z,7.83
2023-02-17T00:04:34.517Z,7.84
2023-02-17T00:07:21.565Z,7.85
2023-02-17T00:10:08.972Z,7.85
2023-02-17T00:12:55.156Z,7.88
2023-02-17T00:15:41.144Z,7.88
2023-02-17T00:18:26.988Z,7.88
2023-02-17T00:21:13.876Z,7.88
2023-02-17T00:24:00.950Z,7.90
2023-02-17T00:26:46.834Z,7.92
2023-02-17T00:29:32.507Z,7.94
2023-02-17T00:32:18.196Z,7.96
2023-02-17T00:35:04.457Z,7.95
2023-02-17T00:37:50.556Z,7.97
2023-02-17T00:40:38.826Z,7.98
2023-02-17T00:43:24.645Z,7.98
2023-02-17T00:46:12.493Z,7.97
2023-02-17T00:48:58.746Z,7.97
2023-02-17T00:51:44.617Z,8.02
2023-02-17T00:54:30.386Z,8.03
2023-02-17T00:57:17.529Z,8.01
2023-02-17T01:00:04.141Z,8.07
2023-02-17T01:02:50.049Z,8.10
2023-02-17T01:05:35.946Z,8.09
2023-02-17T01:08:21.965Z,8.11
2023-02-17T01:11:08.051Z,8.11
2023-02-17T01:13:55.376Z,8.12
2023-02-17T01:16:42.392Z,8.15
2023-02-17T01:19:28.096Z,8.15
2023-02-17T01:22:14.324Z,8.15
2023-02-17T01:25:00.897Z,8.19
2023-02-17T01:27:47.967Z,8.19
2023-02-17T01:30:35.266Z,8.22
2023-02-17T01:33:21.052Z,8.23
2023-02-17T01:36:07.545Z,8.24
2023-02-17T01:38:53.703Z,8.26
2023-02-17T01:41:39.503Z,8.27
2023-02-17T01:44:26.452Z,8.28
2023-02-17T01:47:14.071Z,8.30
2023-02-17T01:49:59.813Z,8.32
2023-02-17T01:52:45.580Z,8.33
2023-02-17T01:55:32.245Z,8.35
2023-02-17T01:58:19.081Z,8.36
2023-02-17T02:01:05.771Z,8.37
2023-02-17T02:03:52.996Z,8.39
2023-02-17T02:06:39.225Z,8.41
2023-02-17T02:09:26.920Z,8.45
2023-02-17T02:12:17.173Z,8.47
2023-02-17T02:15:04.840Z,8.50
2023-02-17T02:17:58.016Z,8.51
2023-02-17T02:21:11.298Z,8.54
2023-02-17T02:23:59.468Z,8.56
2023-02-17T02:27:03.413Z,8.56
2023-02-17T02:30:08.218Z,8.58
2023-02-17T02:32:57.074Z,8.60
2023-02-17T02:35:47.284Z,8.64
2023-02-17T02:38:35.879Z,8.69
2023-02-17T02:41:22.409Z,8.72
2023-02-17T02:44:10.181Z,8.71
2023-02-17T02:46:57.491Z,8.73
2023-02-17T02:49:44.609Z,8.77
2023-02-17T02:52:31.993Z,8.80
2023-02-17T02:55:19.565Z,8.83
2023-02-17T02:58:07.125Z,8.84
2023-02-17T03:00:55.938Z,8.83
2023-02-17T03:03:42.910Z,8.86
2023-02-17T03:06:31.383Z,8.86
2023-02-17T03:09:18.973Z,8.87
2023-02-17T03:12:06.355Z,8.86
2023-02-17T03:14:54.311Z,8.91
2023-02-17T03:17:41.430Z,8.91
2023-02-17T03:20:27.362Z,8.94
2023-02-17T03:23:14.469Z,8.94
2023-02-17T03:26:00.175Z,8.95
2023-02-17T03:28:46.077Z,8.99
2023-02-17T03:31:31.831Z,8.97
2023-02-17T03:34:18.073Z,9.00
2023-02-17T03:37:03.950Z,9.02
2023-02-17T03:39:51.182Z,9.02
2023-02-17T03:42:37.165Z,9.04
2023-02-17T03:45:23.052Z,9.03
2023-02-17T03:48:08.746Z,9.07
2023-02-17T03:50:54.568Z,9.06
2023-02-17T03:53:40.266Z,9.07
2023-02-17T03:56:27.328Z,9.09
2023-02-17T03:59:13.224Z,9.12
2023-02-17T04:01:59.560Z,9.13
2023-02-17T04:04:45.465Z,9.11
2023-02-17T04:07:31.251Z,9.11
2023-02-17T04:10:16.976Z,9.14
2023-02-17T04:13:04.161Z,9.16
2023-02-17T04:15:50.206Z,9.15
2023-02-17T04:18:36.554Z,9.17
2023-02-17T04:21:22.381Z,9.15
2023-02-17T04:24:08.169Z,9.18
2023-02-17T04:26:54.131Z,9.19
2023-02-17T04:29:41.374Z,9.17
2023-02-17T04:32:27.341Z,9.17
2023-02-17T04:35:13.126Z,9.18
2023-02-17T04:37:59.020Z,9.18
2023-02-17T04:40:45.347Z,9.16
2023-02-17T04:43:31.333Z,9.15
2023-02-17T04:46:18.408Z,9.17
2023-02-17T04:49:04.072Z,9.16
2023-02-17T04:51:50.090Z,9.17
2023-02-17T04:54:35.784Z,9.20
2023-02-17T04:57:21.631Z,9.20
2023-02-17T05:00:07.987Z,9.20
2023-02-17T05:02:55.296Z,9.18
2023-02-17T05:05:41.030Z,9.19
2023-02-17T05:08:27.092Z,9.23
2023-02-17T05:11:12.948Z,9.19
2023-02-17T05:13:58.848Z,9.21
2023-02-17T05:16:45.319Z,9.20
2023-02-17T05:19:32.364Z,9.21
2023-02-17T05:22:18.177Z,9.22
2023-02-17T05:25:04.177Z,9.26
2023-02-17T05:27:50.102Z,9.27
2023-02-17T05:30:36.138Z,9.32
2023-02-17T05:33:21.783Z,9.32
2023-02-17T05:36:09.925Z,9.32
2023-02-17T05:38:55.998Z,9.30
2023-02-17T05:41:41.729Z,9.31
2023-02-17T05:44:27.630Z,9.31
2023-02-17T05:47:13.338Z,9.34
2023-02-17T05:49:59.212Z,9.33
2023-02-17T05:52:46.451Z,9.40
2023-02-17T05:55:32.586Z,9.40
2023-02-17T05:58:18.284Z,9.41
2023-02-17T06:01:08.226Z,9.42
2023-02-17T06:03:53.979Z,9.43
2023-02-17T06:06:39.761Z,9.41
2023-02-17T06:09:26.992Z,9.41
2023-02-17T06:12:12.859Z,9.43
2023-02-17T06:14:58.631Z,9.42
2023-02-17T06:17:44.412Z,9.43
2023-02-17T06:20:30.140Z,9.44
2023-02-17T06:23:16.290Z,9.45
2023-02-17T06:26:03.405Z,9.49
2023-02-17T06:28:49.906Z,9.50
2023-02-17T06:31:36.126Z,9.49
2023-02-17T06:34:22.336Z,9.54
2023-02-17T06:37:08.217Z,9.55
2023-02-17T06:39:53.979Z,9.54
2023-02-17T06:42:41.201Z,9.54
2023-02-17T06:45:27.234Z,9.47
2023-02-17T06:48:13.486Z,9.52
2023-02-17T06:50:59.496Z,9.52
2023-02-17T06:53:45.262Z,9.52
2023-02-17T06:56:31.186Z,9.54
2023-02-17T06:59:18.844Z,9.52
2023-02-17T07:02:05.037Z,9.53
2023-02-17T07:04:51.375Z,9.54
2023-02-17T07:07:37.121Z,9.56
2023-02-17T07:10:23.036Z,9.52
2023-02-17T07:13:08.939Z,9.55
2023-02-17T07:15:56.185Z,9.54
2023-02-17T07:18:42.102Z,9.58
2023-02-17T07:21:28.034Z,9.60
2023-02-17T07:24:14.151Z,9.61
2023-02-17T07:27:00.876Z,9.64
2023-02-17T07:29:46.637Z,9.65
2023-02-17T07:32:33.761Z,9.67
2023-02-17T07:35:19.678Z,9.74
2023-02-17T07:38:05.465Z,9.73
2023-02-17T07:40:51.231Z,9.77
2023-02-17T07:43:36.965Z,9.79
2023-02-17T07:46:22.702Z,9.82
2023-02-17T07:49:09.890Z,9.83
2023-02-17T07:51:55.665Z,9.87
2023-02-17T07:54:41.508Z,9.88
2023-02-17T07:57:27.382Z,9.89
2023-02-17T08:00:13.602Z,9.92
2023-02-17T08:02:59.430Z,9.92
2023-02-17T08:05:48.187Z,9.96
2023-02-17T08:08:52.524Z,9.97
2023-02-17T08:11:56.750Z,10.00
2023-02-17T08:14:42.846Z,10.00
2023-02-17T08:17:28.580Z,10.02
2023-02-17T08:20:15.836Z,10.01
2023-02-17T08:23:03.505Z,10.06
2023-02-17T08:25:49.476Z,10.07
2023-02-17T08:28:35.632Z,10.06
2023-02-17T08:31:22.871Z,10.11
2023-02-17T08:34:09.620Z,10.09
2023-02-17T08:36:55.840Z,10.11
2023-02-17T08:39:42.986Z,10.14
2023-02-17T08:42:28.989Z,10.15
2023-02-17T08:45:15.115Z,10.18
2023-02-17T08:48:01.235Z,10.21
2023-02-17T08:50:47.952Z,10.22
2023-02-17T08:53:34.384Z,10.27
2023-02-17T08:56:21.909Z,10.27
2023-02-17T08:59:07.949Z,10.32
2023-02-17T09:01:55.676Z,10.35
2023-02-17T09:04:43.205Z,10.36
2023-02-17T09:07:29.589Z,10.34
2023-02-17T09:10:15.758Z,10.38
2023-02-17T09:13:03.110Z,10.41
2023-02-17T09:15:49.410Z,10.43
2023-02-17T09:18:35.196Z,10.43
2023-02-17T09:21:21.368Z,10.43
2023-02-17T09:24:07.492Z,10.47
2023-02-17T09:26:53.540Z,10.48
2023-02-17T09:29:41.121Z,10.52
2023-02-17T09:32:27.019Z,10.55
2023-02-17T09:35:13.472Z,10.54
2023-02-17T09:37:59.278Z,10.55
2023-02-17T09:40:47.238Z,10.55
2023-02-17T09:43:32.976Z,10.57
2023-02-17T09:46:21.631Z,10.58
2023-02-17T09:49:08.489Z,10.60
2023-02-17T09:51:55.430Z,10.55
2023-02-17T09:54:42.668Z,10.58
2023-02-17T09:57:29.618Z,10.61
2023-02-17T10:00:15.884Z,10.58
2023-02-17T10:03:04.298Z,10.55
2023-02-17T10:05:50.862Z,10.56
2023-02-17T10:08:37.541Z,10.57
2023-02-17T10:11:25.507Z,10.57
2023-02-17T10:14:12.621Z,10.60
2023-02-17T10:17:01.223Z,10.64
2023-02-17T10:19:51.737Z,10.61
2023-02-17T10:22:38.488Z,10.62
2023-02-17T10:25:26.658Z,10.61
2023-02-17T10:28:15.951Z,10.63
2023-02-17T10:31:03.063Z,10.61
2023-02-17T10:33:50.519Z,10.55
2023-02-17T10:36:43.045Z,10.59
2023-02-17T10:39:31.903Z,10.59
2023-02-17T10:42:20.635Z,10.66
2023-02-17T10:45:07.148Z,10.72
2023-02-17T10:47:53.780Z,10.73
2023-02-17T10:50:40.165Z,10.77
2023-02-17T10:53:28.904Z,10.82
2023-02-17T10:56:15.770Z,10.88
2023-02-17T10:59:06.225Z,10.95
2023-02-17T11:01:52.573Z,11.00
2023-02-17T11:04:41.597Z,11.05
2023-02-17T11:07:28.122Z,11.13
2023-02-17T11:10:22.255Z,11.23
2023-02-17T11:13:20.384Z,11.30
2023-02-17T11:16:06.730Z,11.39
2023-02-17T11:18:52.838Z,11.42
2023-02-17T11:21:43.494Z,11.49
2023-02-17T11:24:31.001Z,11.63
2023-02-17T11:27:20.278Z,11.71
2023-02-17T11:30:07.788Z,11.80
2023-02-17T11:32:55.053Z,11.86
2023-02-17T11:35:46.136Z,11.98
2023-02-17T11:38:34.470Z,12.06
2023-02-17T11:41:20.791Z,12.12
2023-02-17T11:44:09.576Z,12.12
2023-02-17T11:46:56.918Z,12.16
2023-02-17T11:49:56.158Z,12.23
2023-02-17T11:52:46.338Z,12.20
2023-02-17T11:55:36.021Z,12.25
2023-02-17T11:58:25.502Z,12.26
2023-02-17T12:01:17.625Z,12.26
2023-02-17T12:04:21.569Z,12.30
2023-02-17T12:07:13.632Z,12.24
2023-02-17T12:10:01.678Z,12.35
2023-02-17T12:12:54.894Z,12.36
2023-02-17T12:15:44.031Z,12.34
2023-02-17T12:18:41.647Z,12.38
2023-02-17T12:21:31.425Z,12.42
2023-02-17T12:24:27.646Z,12.36
2023-02-17T12:27:18.431Z,12.26
2023-02-17T12:30:09.807Z,12.32
2023-02-17T12:33:00.381Z,12.28
2023-02-17T12:35:51.026Z,12.24
2023-02-17T12:38:38.026Z,12.23
2023-02-17T12:41:25.507Z,12.22
2023-02-17T12:44:13.300Z,12.13
2023-02-17T12:46:59.746Z,12.06
2023-02-17T12:49:47.113Z,12.03
2023-02-17T12:52:35.603Z,12.02
2023-02-17T12:55:22.009Z,11.96
2023-02-17T12:58:08.578Z,11.97
2023-02-17T13:00:55.594Z,11.91
2023-02-17T13:03:41.720Z,11.94
2023-02-17T13:06:28.549Z,11.90
2023-02-17T13:09:18.884Z,11.85
2023-02-17T13:12:19.443Z,11.79
2023-02-17T13:15:06.764Z,11.75
2023-02-17T13:17:53.996Z,11.75
2023-02-17T13:20:45.436Z,11.74
2023-02-17T13:23:34.804Z,11.70
2023-02-17T13:26:29.556Z,11.69
2023-02-17T13:29:33.875Z,11.53
2023-02-17T13:32:27.795Z,11.40
2023-02-17T13:35:19.066Z,11.33
2023-02-17T13:38:05.322Z,11.27
2023-02-17T13:40:52.232Z,11.22
2023-02-17T13:43:41.444Z,11.23
2023-02-17T13:46:28.994Z,11.09
2023-02-17T13:49:20.350Z,11.05
2023-02-17T13:52:11.242Z,11.12
2023-02-17T13:54:58.002Z,11.08
2023-02-17T13:57:44.140Z,11.01
2023-02-17T14:00:30.916Z,11.03
2023-02-17T14:03:21.158Z,10.94
2023-02-17T14:06:08.355Z,10.95
2023-02-17T14:08:54.953Z,10.88
2023-02-17T14:11:41.512Z,10.92
2023-02-17T14:14:29.670Z,10.84
2023-02-17T14:17:16.072Z,10.85
2023-02-17T14:20:03.273Z,10.79
2023-02-17T14:23:03.416Z,10.74
2023-02-17T14:25:51.521Z,10.69
2023-02-17T14:28:37.500Z,10.67
2023-02-17T14:31:24.182Z,10.62
2023-02-17T14:34:13.992Z,10.63
2023-02-17T14:37:09.236Z,10.54
2023-02-17T14:39:55.269Z,10.59
2023-02-17T14:42:41.242Z,10.52
2023-02-17T14:45:27.134Z,10.47
2023-02-17T14:48:12.977Z,10.47
2023-02-17T14:50:59.008Z,10.43
2023-02-17T14:53:46.279Z,10.40
2023-02-17T14:56:33.130Z,10.37
2023-02-17T14:59:19.231Z,10.41
2023-02-17T15:02:05.736Z,10.38
2023-02-17T15:04:51.682Z,10.37
2023-02-17T15:07:37.375Z,10.37
2023-02-17T15:10:26.189Z,10.37
2023-02-17T15:13:13.439Z,10.36
2023-02-17T15:15:59.729Z,10.36
2023-02-17T15:18:45.478Z,10.35
2023-02-17T15:21:31.722Z,10.34
2023-02-17T15:24:18.391Z,10.34
2023-02-17T15:27:06.033Z,10.35
2023-02-17T15:29:52.015Z,10.32
2023-02-17T15:32:38.191Z,10.29
2023-02-17T15:35:25.873Z,10.29
2023-02-17T15:38:12.348Z,10.31
2023-02-17T15:40:58.579Z,10.29
2023-02-17T15:43:46.175Z,10.26
2023-02-17T15:46:32.518Z,10.26
2023-02-17T15:49:18.443Z,10.25
2023-02-17T15:52:04.429Z,10.25
2023-02-17T15:54:50.315Z,10.24
2023-02-17T15:57:38.000Z,10.24
2023-02-17T16:00:26.086Z,10.24
2023-02-17T16:03:13.452Z,10.23
2023-02-17T16:05:59.750Z,10.22
2023-02-17T16:08:45.514Z,10.21
2023-02-17T16:11:31.374Z,10.21
2023-02-17T16:14:20.185Z,10.20
2023-02-17T16:17:10.829Z,10.18
2023-02-17T16:19:57.372Z,10.18
2023-02-17T16:22:44.436Z,10.15
2023-02-17T16:25:30.756Z,10.12
2023-02-17T16:28:17.316Z,10.12
2023-02-17T16:31:03.501Z,10.10
2023-02-17T16:33:51.584Z,10.11
2023-02-17T16:36:37.971Z,10.11
2023-02-17T16:39:24.139Z,10.08
2023-02-17T16:42:10.825Z,10.04
2023-02-17T16:44:57.109Z,10.01
2023-02-17T16:47:45.031Z,9.98
2023-02-17T16:50:33.374Z,9.97
2023-02-17T16:53:19.600Z,9.97
2023-02-17T16:56:07.858Z,9.95
2023-02-17T16:58:53.897Z,9.95
2023-02-17T17:01:39.618Z,9.97
2023-02-17T17:04:25.439Z,9.97
2023-02-17T17:07:12.801Z,10.00
2023-02-17T17:10:15.366Z,9.97
2023-02-17T17:13:02.253Z,9.98
2023-02-17T17:15:48.189Z,9.99
2023-02-17T17:18:33.841Z,9.99
2023-02-17T17:21:20.186Z,10.01
2023-02-17T17:24:07.578Z,10.01
2023-02-17T17:26:53.626Z,10.03
2023-02-17T17:29:39.501Z,10.05
2023-02-17T17:32:25.501Z,10.06
2023-02-17T17:35:11.937Z,10.03
2023-02-17T17:37:58.780Z,10.03
2023-02-17T17:40:53.242Z,10.04
2023-02-17T17:43:39.351Z,10.05
2023-02-17T17:46:25.907Z,10.07
2023-02-17T17:49:12.936Z,10.04
2023-02-17T17:51:58.749Z,10.03
2023-02-17T17:54:44.552Z,10.04
2023-02-17T17:57:31.682Z,9.97
2023-02-17T18:00:18.401Z,9.87
2023-02-17T18:03:05.054Z,9.84
2023-02-17T18:05:50.978Z,9.80
2023-02-17T18:08:37.431Z,9.73
2023-02-17T18:11:23.438Z,9.67
2023-02-17T18:14:13.646Z,9.60
2023-02-17T18:16:59.789Z,9.51
2023-02-17T18:19:45.601Z,9.40
2023-02-17T18:22:31.877Z,9.37
2023-02-17T18:25:18.138Z,9.24
2023-02-17T18:28:04.172Z,9.25
2023-02-17T18:30:51.391Z,9.15
2023-02-17T18:33:37.981Z,9.11
2023-02-17T18:36:24.747Z,9.00
2023-02-17T18:39:11.017Z,8.94
2023-02-17T18:41:57.069Z,8.87
2023-02-17T18:44:42.795Z,8.83
2023-02-17T18:47:29.972Z,8.71
2023-02-17T18:50:16.181Z,8.66
2023-02-17T18:53:05.186Z,8.58
2023-02-17T18:55:51.361Z,8.48
2023-02-17T18:58:37.175Z,8.40
2023-02-17T19:01:24.017Z,8.35
2023-02-17T19:04:11.821Z,8.29
2023-02-17T19:07:03.036Z,8.22
2023-02-17T19:09:51.444Z,8.13
2023-02-17T19:12:39.416Z,8.08
2023-02-17T19:15:25.461Z,8.00
2023-02-17T19:18:11.538Z,7.95
2023-02-17T19:20:58.588Z,7.89
2023-02-17T19:23:44.446Z,7.78
2023-02-17T19:26:30.259Z,7.76
2023-02-17T19:29:15.916Z,7.69
2023-02-17T19:32:02.314Z,7.63
2023-02-17T19:34:48.061Z,7.62
2023-02-17T19:37:35.796Z,7.56
2023-02-17T19:40:21.815Z,7.53
2023-02-17T19:43:07.754Z,7.47
2023-02-17T19:45:53.548Z,7.39
2023-02-17T19:48:39.508Z,7.33
2023-02-17T19:51:25.229Z,7.31
2023-02-17T19:54:13.229Z,7.23
2023-02-17T19:56:59.366Z,7.19
2023-02-17T19:59:45.282Z,7.15
2023-02-17T20:02:31.618Z,7.10
2023-02-17T20:05:17.725Z,7.08
2023-02-17T20:08:03.495Z,7.04
2023-02-17T20:10:50.621Z,7.00
2023-02-17T20:13:45.142Z,6.97
2023-02-17T20:16:32.942Z,6.95
2023-02-17T20:19:19.036Z,6.89
2023-02-17T20:22:04.894Z,6.86
2023-02-17T20:24:50.687Z,6.85
2023-02-17T20:27:37.803Z,6.79
2023-02-17T20:30:23.676Z,6.75
2023-02-17T20:33:09.835Z,6.71
2023-02-17T20:35:55.858Z,6.66
2023-02-17T20:38:41.838Z,6.65
2023-02-17T20:41:27.830Z,6.63
2023-02-17T20:44:14.974Z,6.59
2023-02-17T20:47:01.102Z,6.58
2023-02-17T20:49:47.045Z,6.55
2023-02-17T20:52:32.841Z,6.55
2023-02-17T20:55:19.664Z,6.56
2023-02-17T20:58:05.780Z,6.52
2023-02-17T21:00:53.062Z,6.51
2023-02-17T21:03:38.879Z,6.48
2023-02-17T21:06:25.256Z,6.47
2023-02-17T21:09:13.716Z,6.47
2023-02-17T21:11:59.824Z,6.42
2023-02-17T21:14:45.568Z,6.41
2023-02-17T21:17:32.664Z,6.41
2023-02-17T21:20:19.825Z,6.38
2023-02-17T21:23:05.806Z,6.36
2023-02-17T21:25:51.916Z,6.34
2023-02-17T21:28:37.827Z,6.31
2023-02-17T21:31:23.752Z,6.28
2023-02-17T21:34:11.369Z,6.26
2023-02-17T21:36:57.444Z,6.24
2023-02-17T21:39:43.203Z,6.23
2023-02-17T21:42:47.200Z,6.18
2023-02-17T21:45:37.542Z,6.17
2023-02-17T21:48:23.598Z,6.16
2023-02-17T21:51:11.793Z,6.11
2023-02-17T21:53:57.779Z,6.10
2023-02-17T21:56:43.833Z,6.07
2023-02-17T21:59:29.722Z,6.06
2023-02-17T22:02:15.558Z,6.04
2023-02-17T22:05:01.189Z,6.04
2023-02-17T22:07:49.879Z,6.05
2023-02-17T22:10:37.223Z,6.02
2023-02-17T22:13:23.021Z,6.01
2023-02-17T22:16:09.044Z,5.97
2023-02-17T22:18:55.179Z,5.96
2023-02-17T22:21:40.857Z,5.94
2023-02-17T22:24:28.031Z,5.93
2023-02-17T22:27:14.253Z,5.91
2023-02-17T22:30:00.090Z,5.91
2023-02-17T22:32:46.417Z,5.89
2023-02-17T22:35:32.523Z,5.85
2023-02-17T22:38:18.241Z,5.83
2023-02-17T22:41:07.005Z,5.80
2023-02-17T22:43:53.839Z,5.78
2023-02-17T22:46:40.088Z,5.75
2023-02-17T22:49:25.851Z,5.72
2023-02-17T22:52:12.230Z,5.72
2023-02-17T22:54:58.086Z,5.72
2023-02-17T22:57:47.207Z,5.71
2023-02-17T23:00:33.055Z,5.68
2023-02-17T23:03:18.988Z,5.69
2023-02-17T23:06:06.524Z,5.69
2023-02-17T23:08:53.115Z,5.71
2023-02-17T23:11:53.688Z,5.70
2023-02-17T23:14:41.318Z,5.67
2023-02-17T23:17:27.336Z,5.66
2023-02-17T23:20:13.146Z,5.65
2023-02-17T23:22:58.906Z,5.64
2023-02-17T23:25:46.429Z,5.63
2023-02-17T23:28:32.594Z,5.62
2023-02-17T23:31:19.762Z,5.65
2023-02-17T23:34:05.897Z,5.64
2023-02-17T23:36:51.650Z,5.65
2023-02-17T23:39:37.675Z,5.67
2023-02-17T23:42:23.385Z,5.67
2023-02-17T23:45:09.553Z,5.70
2023-02-17T23:47:57.080Z,5.68
2023-02-17T23:50:42.980Z,5.65
2023-02-17T23:53:29.018Z,5.65
2023-02-17T23:56:15.680Z,5.64
2023-02-17T23:59:01.579Z,5.63
